Terminal Aerodrome Forecast
Issued by NWS

Home | Current Version | Previous Version | Text Only | Print | Product List | Glossary On
Versions: 1 2 3 4 5 6 7 8 9 10 11 12 13 14 15 16 17 18 19 20 21 22 23 24 25 26
000
FTUS43 KICT 210520
TAFHUT
TAF
KHUT 210520Z 2106/2206 36005KT P6SM FEW025 SCT035 BKN045
      TEMPO 2106/2110 BKN025
     FM211000 01005KT 5SM BR SCT020
     FM211400 06006KT P6SM SCT040 SCT100 BKN250
     FM212100 10005KT P6SM SCT040 BKN250=

USA.gov is the U.S. government's official web portal to all federal, state and local government web resources and services.